Flight Track Log - Related Links

Times and Time Zones

All times are in EST time to prevent confusion due to time zone crossing. See the XOJ552 flight status page for this flight to view local times or setup timezone preferences in your user account.

Time Position Orientation Groundspeed Altitude Reporting Facility
EST Latitude Longitude Course Direction KTS MPH feet Rate Location/Type
Sun 02:38:22 PM 40.5017 -80.2681 354° North 179 206 2,300  Level Cleveland Center
Sun 02:39:24 PM 40.5514 -80.2747 354° North 249 287 5,700 4,049 Climbing Cleveland Center
Sun 02:40:25 PM 40.5764 -80.1636 73° East 330 380 10,600 4,174 Climbing Cleveland Center
Sun 02:42:28 PM 40.6025 -79.8361 84° East 447 514 18,500 3,795 Climbing Cleveland Center
Sun 02:43:30 PM 40.6211 -79.6567 82° East 489 563 22,300 3,073 Climbing Cleveland Center
Sun 02:44:31 PM 40.6375 -79.4742 83° East 500 575 24,800 2,390 Climbing Cleveland Center
Sun 02:45:33 PM 40.6542 -79.2822 83° East 526 605 27,200 1,984 Climbing Cleveland Center
Sun 02:46:35 PM 40.6722 -79.0792 83° East 555 639 28,900 1,805 Climbing Cleveland Center
Sun 02:47:36 PM 40.6914 -78.8703 83° East 570 656 30,900 2,049 Climbing Cleveland Center
Sun 02:48:38 PM 40.7122 -78.6200 84° East 580 667 33,100 2,000 Climbing Cleveland Center
Sun 02:49:39 PM 40.7342 -78.4092 82° East 589 678 35,000 927 Climbing Cleveland Center
Sun 02:50:41 PM 40.8006 -78.2142 66° East 591 680 35,000  Level Cleveland Center
Sun 02:51:43 PM 40.8922 -78.0383 55° Northeast 588 677 35,000  Level Cleveland Center
Sun 02:52:44 PM 40.9961 -77.8194 58° Northeast 595 685 35,000  Level Cleveland Center
Sun 02:53:46 PM 41.0783 -77.6317 60° Northeast 597 687 35,000  Level Cleveland Center
Sun 02:54:47 PM 41.1617 -77.4433 60° Northeast 598 688 35,000  Level Cleveland Center
Sun 02:55:49 PM 41.2442 -77.2550 60° Northeast 595 685 35,000  Level Cleveland Center
Sun 02:56:51 PM 41.3261 -77.0681 60° Northeast 589 678 35,000  Level Cleveland Center
Sun 02:57:52 PM 41.4075 -76.8775 60° Northeast 594 684 35,000  Level Cleveland Center
Sun 02:58:54 PM 41.4844 -76.6353 67° East 607 699 35,000  Level Cleveland Center
Sun 02:59:55 PM 41.4825 -76.4189 91° East 600 690 35,000  Level Cleveland Center
Sun 03:00:56 PM 41.4289 -76.2356 111° Southeast 567 652 35,000 -446 Level New York Center
Sun 03:01:56 PM 41.3714 -76.0347 111° Southeast 574 661 34,100 -1,800 Descending New York Center
Sun 03:02:56 PM 41.3228 -75.8622 111° Southeast 558 642 31,400 -3,000 Descending New York Center
Sun 03:03:56 PM 41.2592 -75.6422 111° Southeast 543 625 28,100 -3,000 Descending New York Center
Sun 03:04:56 PM 41.1992 -75.4725 115° Southeast 524 603 25,400 -2,500 Descending New York Center
Sun 03:05:56 PM 41.1431 -75.3089 114° Southeast 500 575 23,100 -1,250 Descending New York Center
Sun 03:06:56 PM 41.0925 -75.1594 114° Southeast 470 541 22,900 -650 Descending New York Center
Sun 03:07:56 PM 41.0475 -75.0244 114° Southeast 427 491 21,800 -950 Descending New York Center
Sun 03:08:56 PM 41.0022 -74.8897 114° Southeast 401 461 21,000 -400 Descending New York Center
Sun 03:09:56 PM 40.9822 -74.7428 100° East 401 461 21,000  Level New York Center
Sun 03:10:56 PM 40.9644 -74.5906 99° East 401 461 21,000 -250 Level New York Center
Sun 03:11:56 PM 40.9486 -74.4358 98° East 416 479 20,500 -632 Descending New York Center
Sun 03:12:50 PM 40.9333 -74.2833 98° East 427 491 19,800 -789 Descending New York TRACON
Sun 03:13:50 PM 40.9000 -74.1500 108° East 413 475 19,000 -842 Descending New York TRACON
Sun 03:14:44 PM 40.8500 -74.0333 120° Southeast 362 417 18,200 -1,526 Descending New York TRACON
Sun 03:15:44 PM 40.7833 -73.9667 143° Southeast 354 407 16,100 -2,000 Descending New York TRACON
Sun 03:16:50 PM 40.7500 -73.8333 108° East 373 429 14,000 -1,952 Descending New York TRACON
Sun 03:17:50 PM 40.7000 -73.7167 119° Southeast 355 409 12,000 -2,150 Descending New York TRACON
Sun 03:18:50 PM 40.6333 -73.6667 150° Southeast 320 368 9,700 -2,000 Descending New York TRACON
Sun 03:19:50 PM 40.6000 -73.5500 111° Southeast 336 387 8,000 -1,850 Descending New York TRACON
Sun 03:20:50 PM 40.6500 -73.4500 57° Northeast 319 367 6,000 -1,300 Descending New York TRACON
Sun 03:21:50 PM 40.7000 -73.3667 52° Northeast 275 316 5,400 -1,150 Descending New York TRACON
Sun 03:22:50 PM 40.7500 -73.3500 14° North 203 234 3,700 -1,810 Descending New York TRACON
Sun 03:23:56 PM 40.7667 -73.3833 303° West 141 162 1,600 -1,429 Descending New York TRACON
Sun 03:24:56 PM 40.7667 -73.4167 270° West 140 161 700 -900 Descending New York TRACON
Sun 03:27:00 PM 40.7288 -73.4134 166° South  Level Estimated

Login

Don't have an account? Register now (free) for customized features, flight alerts, and more!